sensor_id;sensor_type;location;lat;lon;timestamp;temperature;humidity
913;DHT22;443;51.448;7.028;2023-02-28T00:01:04;10.20;59.60
913;DHT22;443;51.448;7.028;2023-02-28T00:03:31;10.20;60.10
913;DHT22;443;51.448;7.028;2023-02-28T00:06:00;10.20;59.70
913;DHT22;443;51.448;7.028;2023-02-28T00:08:27;10.20;59.40
913;DHT22;443;51.448;7.028;2023-02-28T00:10:54;10.30;60.00
913;DHT22;443;51.448;7.028;2023-02-28T00:13:21;10.20;59.60
913;DHT22;443;51.448;7.028;2023-02-28T00:15:58;10.30;59.90
913;DHT22;443;51.448;7.028;2023-02-28T00:18:25;10.30;59.60
913;DHT22;443;51.448;7.028;2023-02-28T00:20:52;10.30;59.50
913;DHT22;443;51.448;7.028;2023-02-28T00:23:19;10.30;59.40
913;DHT22;443;51.448;7.028;2023-02-28T00:25:45;10.40;59.90
913;DHT22;443;51.448;7.028;2023-02-28T00:28:12;10.40;59.30
913;DHT22;443;51.448;7.028;2023-02-28T00:30:39;10.30;58.90
913;DHT22;443;51.448;7.028;2023-02-28T00:33:07;10.30;58.70
913;DHT22;443;51.448;7.028;2023-02-28T00:35:34;10.30;59.20
913;DHT22;443;51.448;7.028;2023-02-28T00:38:01;10.30;59.10
913;DHT22;443;51.448;7.028;2023-02-28T00:40:34;10.30;58.80
913;DHT22;443;51.448;7.028;2023-02-28T00:43:11;10.30;59.30
913;DHT22;443;51.448;7.028;2023-02-28T00:45:41;10.20;59.10
913;DHT22;443;51.448;7.028;2023-02-28T00:48:46;10.20;59.10
913;DHT22;443;51.448;7.028;2023-02-28T00:51:20;10.10;59.50
913;DHT22;443;51.448;7.028;2023-02-28T00:54:07;10.20;59.90
913;DHT22;443;51.448;7.028;2023-02-28T00:56:41;10.10;59.70
913;DHT22;443;51.448;7.028;2023-02-28T00:59:18;10.10;59.90
913;DHT22;443;51.448;7.028;2023-02-28T01:01:46;10.10;59.50
913;DHT22;443;51.448;7.028;2023-02-28T01:04:15;10.10;60.00
913;DHT22;443;51.448;7.028;2023-02-28T01:06:42;10.10;59.70
913;DHT22;443;51.448;7.028;2023-02-28T01:09:09;10.10;59.80
913;DHT22;443;51.448;7.028;2023-02-28T01:11:36;10.00;59.30
913;DHT22;443;51.448;7.028;2023-02-28T01:14:03;10.00;59.30
913;DHT22;443;51.448;7.028;2023-02-28T01:16:30;9.90;60.10
913;DHT22;443;51.448;7.028;2023-02-28T01:18:57;10.00;59.50
913;DHT22;443;51.448;7.028;2023-02-28T01:21:26;10.00;59.90
913;DHT22;443;51.448;7.028;2023-02-28T01:23:52;10.00;59.90
913;DHT22;443;51.448;7.028;2023-02-28T01:26:22;10.00;60.00
913;DHT22;443;51.448;7.028;2023-02-28T01:28:50;9.90;60.60
913;DHT22;443;51.448;7.028;2023-02-28T01:31:18;9.90;61.00
913;DHT22;443;51.448;7.028;2023-02-28T01:33:44;9.90;60.90
913;DHT22;443;51.448;7.028;2023-02-28T01:36:12;9.90;60.40
913;DHT22;443;51.448;7.028;2023-02-28T01:38:41;9.90;60.50
913;DHT22;443;51.448;7.028;2023-02-28T01:41:16;9.90;60.80
913;DHT22;443;51.448;7.028;2023-02-28T01:43:59;9.90;60.60
913;DHT22;443;51.448;7.028;2023-02-28T01:46:28;9.90;61.60
913;DHT22;443;51.448;7.028;2023-02-28T01:48:59;9.90;61.40
913;DHT22;443;51.448;7.028;2023-02-28T01:51:31;9.90;61.20
913;DHT22;443;51.448;7.028;2023-02-28T01:54:03;9.90;60.80
913;DHT22;443;51.448;7.028;2023-02-28T01:56:34;9.80;61.00
913;DHT22;443;51.448;7.028;2023-02-28T01:59:02;9.80;61.60
913;DHT22;443;51.448;7.028;2023-02-28T02:01:30;9.80;60.80
913;DHT22;443;51.448;7.028;2023-02-28T02:03:59;9.80;61.00
913;DHT22;443;51.448;7.028;2023-02-28T02:06:31;9.80;60.90
913;DHT22;443;51.448;7.028;2023-02-28T02:09:01;9.70;61.10
913;DHT22;443;51.448;7.028;2023-02-28T02:11:29;9.70;61.30
913;DHT22;443;51.448;7.028;2023-02-28T02:14:17;9.70;61.20
913;DHT22;443;51.448;7.028;2023-02-28T02:17:00;9.70;61.00
913;DHT22;443;51.448;7.028;2023-02-28T02:19:52;9.70;61.00
913;DHT22;443;51.448;7.028;2023-02-28T02:22:37;9.70;61.30
913;DHT22;443;51.448;7.028;2023-02-28T02:25:19;9.70;61.00
913;DHT22;443;51.448;7.028;2023-02-28T02:31:19;9.70;60.90
913;DHT22;443;51.448;7.028;2023-02-28T02:37:07;9.70;62.10
913;DHT22;443;51.448;7.028;2023-02-28T02:39:40;9.60;61.20
913;DHT22;443;51.448;7.028;2023-02-28T02:42:14;9.50;61.30
913;DHT22;443;51.448;7.028;2023-02-28T02:44:46;9.50;61.70
913;DHT22;443;51.448;7.028;2023-02-28T02:47:17;9.50;61.20
913;DHT22;443;51.448;7.028;2023-02-28T02:49:48;9.60;61.40
913;DHT22;443;51.448;7.028;2023-02-28T02:52:20;9.60;61.80
913;DHT22;443;51.448;7.028;2023-02-28T02:54:49;9.60;61.30
913;DHT22;443;51.448;7.028;2023-02-28T02:57:23;9.60;61.60
913;DHT22;443;51.448;7.028;2023-02-28T02:59:52;9.60;61.20
913;DHT22;443;51.448;7.028;2023-02-28T03:02:21;9.50;61.00
913;DHT22;443;51.448;7.028;2023-02-28T03:04:52;9.50;61.50
913;DHT22;443;51.448;7.028;2023-02-28T03:07:20;9.60;61.40
913;DHT22;443;51.448;7.028;2023-02-28T03:09:50;9.50;61.40
913;DHT22;443;51.448;7.028;2023-02-28T03:12:17;9.50;61.30
913;DHT22;443;51.448;7.028;2023-02-28T03:14:54;9.50;61.40
913;DHT22;443;51.448;7.028;2023-02-28T03:17:35;9.50;60.90
913;DHT22;443;51.448;7.028;2023-02-28T03:20:13;9.50;61.40
913;DHT22;443;51.448;7.028;2023-02-28T03:23:02;9.50;61.00
913;DHT22;443;51.448;7.028;2023-02-28T03:25:34;9.50;61.60
913;DHT22;443;51.448;7.028;2023-02-28T03:28:09;9.50;60.80
913;DHT22;443;51.448;7.028;2023-02-28T03:30:47;9.50;60.80
913;DHT22;443;51.448;7.028;2023-02-28T03:33:21;9.50;60.80
913;DHT22;443;51.448;7.028;2023-02-28T03:35:55;9.50;61.60
913;DHT22;443;51.448;7.028;2023-02-28T03:38:28;9.50;61.20
913;DHT22;443;51.448;7.028;2023-02-28T03:41:01;9.50;60.80
913;DHT22;443;51.448;7.028;2023-02-28T03:43:34;9.50;60.60
913;DHT22;443;51.448;7.028;2023-02-28T03:46:05;9.50;60.40
913;DHT22;443;51.448;7.028;2023-02-28T03:48:39;9.50;61.30
913;DHT22;443;51.448;7.028;2023-02-28T03:51:12;9.50;60.80
913;DHT22;443;51.448;7.028;2023-02-28T03:53:42;9.50;60.20
913;DHT22;443;51.448;7.028;2023-02-28T03:56:15;9.50;61.10
913;DHT22;443;51.448;7.028;2023-02-28T03:58:49;9.50;60.80
913;DHT22;443;51.448;7.028;2023-02-28T04:01:20;9.40;60.30
913;DHT22;443;51.448;7.028;2023-02-28T04:03:49;9.40;60.40
913;DHT22;443;51.448;7.028;2023-02-28T04:06:18;9.40;60.40
913;DHT22;443;51.448;7.028;2023-02-28T04:08:45;9.40;60.70
913;DHT22;443;51.448;7.028;2023-02-28T04:11:18;9.40;60.10
913;DHT22;443;51.448;7.028;2023-02-28T04:13:46;9.40;60.70
913;DHT22;443;51.448;7.028;2023-02-28T04:16:14;9.40;60.50
913;DHT22;443;51.448;7.028;2023-02-28T04:18:41;9.40;60.70
913;DHT22;443;51.448;7.028;2023-02-28T04:21:09;9.50;61.10
913;DHT22;443;51.448;7.028;2023-02-28T04:23:37;9.40;60.70
913;DHT22;443;51.448;7.028;2023-02-28T04:26:04;9.40;60.30
913;DHT22;443;51.448;7.028;2023-02-28T04:28:32;9.40;60.60
913;DHT22;443;51.448;7.028;2023-02-28T04:30:59;9.30;60.40
913;DHT22;443;51.448;7.028;2023-02-28T04:33:26;9.30;60.20
913;DHT22;443;51.448;7.028;2023-02-28T04:36:00;9.40;60.80
913;DHT22;443;51.448;7.028;2023-02-28T04:38:28;9.30;60.10
913;DHT22;443;51.448;7.028;2023-02-28T04:40:58;9.40;61.30
913;DHT22;443;51.448;7.028;2023-02-28T04:43:26;9.30;60.50
913;DHT22;443;51.448;7.028;2023-02-28T04:45:53;9.30;60.80
913;DHT22;443;51.448;7.028;2023-02-28T04:48:23;9.30;60.50
913;DHT22;443;51.448;7.028;2023-02-28T04:50:50;9.30;60.50
913;DHT22;443;51.448;7.028;2023-02-28T04:53:17;9.20;60.00
913;DHT22;443;51.448;7.028;2023-02-28T04:55:44;9.20;60.40
913;DHT22;443;51.448;7.028;2023-02-28T04:58:12;9.20;60.30
913;DHT22;443;51.448;7.028;2023-02-28T05:00:39;9.30;60.80
913;DHT22;443;51.448;7.028;2023-02-28T05:03:06;9.20;60.60
913;DHT22;443;51.448;7.028;2023-02-28T05:05:33;9.30;61.30
913;DHT22;443;51.448;7.028;2023-02-28T05:08:00;9.20;60.70
913;DHT22;443;51.448;7.028;2023-02-28T05:10:27;9.20;60.00
913;DHT22;443;51.448;7.028;2023-02-28T05:12:54;9.20;60.20
913;DHT22;443;51.448;7.028;2023-02-28T05:15:22;9.20;60.80
913;DHT22;443;51.448;7.028;2023-02-28T05:17:49;9.20;60.30
913;DHT22;443;51.448;7.028;2023-02-28T05:20:16;9.20;60.60
913;DHT22;443;51.448;7.028;2023-02-28T05:22:44;9.20;60.90
913;DHT22;443;51.448;7.028;2023-02-28T05:25:13;9.20;60.70
913;DHT22;443;51.448;7.028;2023-02-28T05:27:43;9.20;60.50
913;DHT22;443;51.448;7.028;2023-02-28T05:30:11;9.20;60.30
913;DHT22;443;51.448;7.028;2023-02-28T05:32:40;9.20;60.60
913;DHT22;443;51.448;7.028;2023-02-28T05:35:09;9.10;59.80
913;DHT22;443;51.448;7.028;2023-02-28T05:37:37;9.10;60.30
913;DHT22;443;51.448;7.028;2023-02-28T05:40:05;9.10;60.20
913;DHT22;443;51.448;7.028;2023-02-28T05:42:33;9.10;60.70
913;DHT22;443;51.448;7.028;2023-02-28T05:45:00;9.20;61.10
913;DHT22;443;51.448;7.028;2023-02-28T05:47:26;9.20;60.80
913;DHT22;443;51.448;7.028;2023-02-28T05:49:54;9.30;61.20
913;DHT22;443;51.448;7.028;2023-02-28T05:52:21;9.30;61.00
913;DHT22;443;51.448;7.028;2023-02-28T05:54:48;9.30;61.10
913;DHT22;443;51.448;7.028;2023-02-28T05:57:15;9.30;61.40
913;DHT22;443;51.448;7.028;2023-02-28T05:59:42;9.30;60.80
913;DHT22;443;51.448;7.028;2023-02-28T06:02:12;9.30;61.10
913;DHT22;443;51.448;7.028;2023-02-28T06:04:39;9.40;60.70
913;DHT22;443;51.448;7.028;2023-02-28T06:07:09;9.50;61.50
913;DHT22;443;51.448;7.028;2023-02-28T06:09:36;9.50;60.50
913;DHT22;443;51.448;7.028;2023-02-28T06:12:04;9.50;60.10
913;DHT22;443;51.448;7.028;2023-02-28T06:14:33;9.40;60.10
913;DHT22;443;51.448;7.028;2023-02-28T06:17:00;9.40;60.20
913;DHT22;443;51.448;7.028;2023-02-28T06:19:27;9.40;60.30
913;DHT22;443;51.448;7.028;2023-02-28T06:21:56;9.30;60.30
913;DHT22;443;51.448;7.028;2023-02-28T06:24:25;9.30;60.30
913;DHT22;443;51.448;7.028;2023-02-28T06:26:53;9.30;60.50
913;DHT22;443;51.448;7.028;2023-02-28T06:29:20;9.30;60.70
913;DHT22;443;51.448;7.028;2023-02-28T06:31:47;9.30;60.90
913;DHT22;443;51.448;7.028;2023-02-28T06:34:14;9.50;62.10
913;DHT22;443;51.448;7.028;2023-02-28T06:36:41;9.60;61.60
913;DHT22;443;51.448;7.028;2023-02-28T06:39:09;9.60;61.90
913;DHT22;443;51.448;7.028;2023-02-28T06:41:37;9.60;61.60
913;DHT22;443;51.448;7.028;2023-02-28T06:44:08;9.60;60.40
913;DHT22;443;51.448;7.028;2023-02-28T06:46:38;9.60;62.10
913;DHT22;443;51.448;7.028;2023-02-28T06:49:06;9.60;60.60
913;DHT22;443;51.448;7.028;2023-02-28T06:51:34;9.50;60.50
913;DHT22;443;51.448;7.028;2023-02-28T06:54:01;9.60;60.90
913;DHT22;443;51.448;7.028;2023-02-28T06:56:28;9.60;61.70
913;DHT22;443;51.448;7.028;2023-02-28T06:58:56;9.50;60.00
913;DHT22;443;51.448;7.028;2023-02-28T07:01:24;9.60;60.80
913;DHT22;443;51.448;7.028;2023-02-28T07:03:51;9.50;60.00
913;DHT22;443;51.448;7.028;2023-02-28T07:06:18;9.50;59.70
913;DHT22;443;51.448;7.028;2023-02-28T07:08:45;9.50;60.30
913;DHT22;443;51.448;7.028;2023-02-28T07:11:12;9.70;61.40
913;DHT22;443;51.448;7.028;2023-02-28T07:13:38;9.70;62.00
913;DHT22;443;51.448;7.028;2023-02-28T07:16:10;9.70;61.20
913;DHT22;443;51.448;7.028;2023-02-28T07:18:37;9.80;61.60
913;DHT22;443;51.448;7.028;2023-02-28T07:21:06;9.80;61.00
913;DHT22;443;51.448;7.028;2023-02-28T07:23:33;9.80;60.50
913;DHT22;443;51.448;7.028;2023-02-28T07:26:00;9.80;60.40
913;DHT22;443;51.448;7.028;2023-02-28T07:28:27;9.90;61.00
913;DHT22;443;51.448;7.028;2023-02-28T07:30:54;9.80;60.50
913;DHT22;443;51.448;7.028;2023-02-28T07:33:22;9.90;60.80
913;DHT22;443;51.448;7.028;2023-02-28T07:35:49;10.00;60.40
913;DHT22;443;51.448;7.028;2023-02-28T07:38:16;10.00;59.90
913;DHT22;443;51.448;7.028;2023-02-28T07:40:43;10.00;59.70
913;DHT22;443;51.448;7.028;2023-02-28T07:43:09;10.00;59.60
913;DHT22;443;51.448;7.028;2023-02-28T07:45:36;10.10;59.40
913;DHT22;443;51.448;7.028;2023-02-28T07:48:03;10.10;59.20
913;DHT22;443;51.448;7.028;2023-02-28T07:50:31;10.10;58.60
913;DHT22;443;51.448;7.028;2023-02-28T07:52:58;10.20;59.10
913;DHT22;443;51.448;7.028;2023-02-28T07:55:25;10.30;60.90
913;DHT22;443;51.448;7.028;2023-02-28T07:57:52;10.30;58.40
913;DHT22;443;51.448;7.028;2023-02-28T08:00:19;10.30;58.80
913;DHT22;443;51.448;7.028;2023-02-28T08:02:46;10.20;58.40
913;DHT22;443;51.448;7.028;2023-02-28T08:05:13;10.20;58.70
913;DHT22;443;51.448;7.028;2023-02-28T08:07:41;10.20;58.20
913;DHT22;443;51.448;7.028;2023-02-28T08:10:09;10.30;58.80
913;DHT22;443;51.448;7.028;2023-02-28T08:12:36;10.40;59.10
913;DHT22;443;51.448;7.028;2023-02-28T08:15:03;10.30;58.30
913;DHT22;443;51.448;7.028;2023-02-28T08:17:30;10.30;59.20
913;DHT22;443;51.448;7.028;2023-02-28T08:19:57;10.30;59.10
913;DHT22;443;51.448;7.028;2023-02-28T08:22:24;10.40;58.90
913;DHT22;443;51.448;7.028;2023-02-28T08:24:52;10.40;58.80
913;DHT22;443;51.448;7.028;2023-02-28T08:27:19;10.40;58.10
913;DHT22;443;51.448;7.028;2023-02-28T08:29:45;10.40;58.70
913;DHT22;443;51.448;7.028;2023-02-28T08:32:12;10.50;59.30
913;DHT22;443;51.448;7.028;2023-02-28T08:34:39;10.50;58.70
913;DHT22;443;51.448;7.028;2023-02-28T08:37:06;10.50;58.80
913;DHT22;443;51.448;7.028;2023-02-28T08:39:34;10.50;59.10
913;DHT22;443;51.448;7.028;2023-02-28T08:42:03;10.50;58.50
913;DHT22;443;51.448;7.028;2023-02-28T08:44:30;10.60;58.50
913;DHT22;443;51.448;7.028;2023-02-28T08:46:57;10.50;57.70
913;DHT22;443;51.448;7.028;2023-02-28T08:49:23;10.60;58.80
913;DHT22;443;51.448;7.028;2023-02-28T08:51:50;10.60;58.90
913;DHT22;443;51.448;7.028;2023-02-28T08:54:17;10.60;58.00
913;DHT22;443;51.448;7.028;2023-02-28T08:56:44;10.60;58.00
913;DHT22;443;51.448;7.028;2023-02-28T08:59:13;10.60;58.30
913;DHT22;443;51.448;7.028;2023-02-28T09:01:40;10.70;57.90
913;DHT22;443;51.448;7.028;2023-02-28T09:04:09;10.70;58.30
913;DHT22;443;51.448;7.028;2023-02-28T09:06:37;10.90;59.20
913;DHT22;443;51.448;7.028;2023-02-28T09:09:04;10.90;58.40
913;DHT22;443;51.448;7.028;2023-02-28T09:11:33;10.90;58.40
913;DHT22;443;51.448;7.028;2023-02-28T09:14:00;10.70;57.10
913;DHT22;443;51.448;7.028;2023-02-28T09:16:31;10.80;58.30
913;DHT22;443;51.448;7.028;2023-02-28T09:18:58;10.90;57.80
913;DHT22;443;51.448;7.028;2023-02-28T09:21:25;10.90;57.80
913;DHT22;443;51.448;7.028;2023-02-28T09:23:52;11.00;57.70
913;DHT22;443;51.448;7.028;2023-02-28T09:26:22;11.10;58.90
913;DHT22;443;51.448;7.028;2023-02-28T09:28:50;11.10;59.50
913;DHT22;443;51.448;7.028;2023-02-28T09:31:20;11.10;57.40
913;DHT22;443;51.448;7.028;2023-02-28T09:33:49;11.10;58.00
913;DHT22;443;51.448;7.028;2023-02-28T09:36:16;11.10;57.40
913;DHT22;443;51.448;7.028;2023-02-28T09:38:43;11.10;57.10
913;DHT22;443;51.448;7.028;2023-02-28T09:41:14;11.30;61.60
913;DHT22;443;51.448;7.028;2023-02-28T09:43:45;11.30;56.80
913;DHT22;443;51.448;7.028;2023-02-28T09:46:25;11.30;57.00
913;DHT22;443;51.448;7.028;2023-02-28T09:48:55;11.20;57.90
913;DHT22;443;51.448;7.028;2023-02-28T09:51:33;11.20;57.10
913;DHT22;443;51.448;7.028;2023-02-28T09:54:01;11.30;57.70
913;DHT22;443;51.448;7.028;2023-02-28T09:56:32;11.50;60.80
913;DHT22;443;51.448;7.028;2023-02-28T09:59:02;11.60;58.80
913;DHT22;443;51.448;7.028;2023-02-28T10:01:34;11.50;55.90
913;DHT22;443;51.448;7.028;2023-02-28T10:04:10;11.90;61.60
913;DHT22;443;51.448;7.028;2023-02-28T10:06:46;12.00;59.20
913;DHT22;443;51.448;7.028;2023-02-28T10:09:17;11.90;58.10
913;DHT22;443;51.448;7.028;2023-02-28T10:11:47;11.70;55.80
913;DHT22;443;51.448;7.028;2023-02-28T10:14:16;12.00;61.70
913;DHT22;443;51.448;7.028;2023-02-28T10:16:46;12.00;61.10
913;DHT22;443;51.448;7.028;2023-02-28T10:19:22;12.00;56.30
913;DHT22;443;51.448;7.028;2023-02-28T10:21:56;11.80;56.20
913;DHT22;443;51.448;7.028;2023-02-28T10:24:27;12.00;58.60
913;DHT22;443;51.448;7.028;2023-02-28T10:27:00;12.30;61.50
913;DHT22;443;51.448;7.028;2023-02-28T10:29:28;12.30;59.40
913;DHT22;443;51.448;7.028;2023-02-28T10:32:00;12.40;60.50
913;DHT22;443;51.448;7.028;2023-02-28T10:34:29;12.50;59.10
913;DHT22;443;51.448;7.028;2023-02-28T10:36:56;12.50;60.40
913;DHT22;443;51.448;7.028;2023-02-28T10:39:36;12.40;55.90
913;DHT22;443;51.448;7.028;2023-02-28T10:42:03;12.20;58.40
913;DHT22;443;51.448;7.028;2023-02-28T10:44:31;11.90;55.40
913;DHT22;443;51.448;7.028;2023-02-28T10:46:57;11.90;57.20
913;DHT22;443;51.448;7.028;2023-02-28T10:49:26;12.10;58.40
913;DHT22;443;51.448;7.028;2023-02-28T10:51:57;12.00;57.80
913;DHT22;443;51.448;7.028;2023-02-28T10:54:29;12.10;59.90
913;DHT22;443;51.448;7.028;2023-02-28T10:57:08;12.20;57.50
913;DHT22;443;51.448;7.028;2023-02-28T10:59:39;12.20;58.30
913;DHT22;443;51.448;7.028;2023-02-28T11:02:29;12.20;57.60
913;DHT22;443;51.448;7.028;2023-02-28T11:04:56;12.00;56.50
913;DHT22;443;51.448;7.028;2023-02-28T11:07:26;11.80;55.40
913;DHT22;443;51.448;7.028;2023-02-28T11:09:55;12.30;61.70
913;DHT22;443;51.448;7.028;2023-02-28T11:12:25;12.40;60.30
913;DHT22;443;51.448;7.028;2023-02-28T11:14:55;12.40;57.20
913;DHT22;443;51.448;7.028;2023-02-28T11:17:24;12.30;56.80
913;DHT22;443;51.448;7.028;2023-02-28T11:19:55;12.30;59.20
913;DHT22;443;51.448;7.028;2023-02-28T11:22:27;12.10;54.10
913;DHT22;443;51.448;7.028;2023-02-28T11:24:56;12.10;58.90
913;DHT22;443;51.448;7.028;2023-02-28T11:27:45;12.10;59.10
913;DHT22;443;51.448;7.028;2023-02-28T11:30:35;12.10;56.80
913;DHT22;443;51.448;7.028;2023-02-28T11:33:26;12.20;58.00
913;DHT22;443;51.448;7.028;2023-02-28T11:35:58;12.10;57.10
913;DHT22;443;51.448;7.028;2023-02-28T11:38:27;12.20;57.10
913;DHT22;443;51.448;7.028;2023-02-28T11:41:08;12.50;61.00
913;DHT22;443;51.448;7.028;2023-02-28T11:43:57;12.60;57.50
913;DHT22;443;51.448;7.028;2023-02-28T11:46:31;12.60;59.70
913;DHT22;443;51.448;7.028;2023-02-28T11:49:07;12.70;58.70
913;DHT22;443;51.448;7.028;2023-02-28T11:51:47;12.50;58.20
913;DHT22;443;51.448;7.028;2023-02-28T11:57:28;12.40;55.30
913;DHT22;443;51.448;7.028;2023-02-28T12:00:02;12.20;54.50
913;DHT22;443;51.448;7.028;2023-02-28T12:02:37;12.50;59.50
913;DHT22;443;51.448;7.028;2023-02-28T12:05:23;12.30;57.20
913;DHT22;443;51.448;7.028;2023-02-28T12:08:01;12.30;56.20
913;DHT22;443;51.448;7.028;2023-02-28T12:10:35;12.40;60.00
913;DHT22;443;51.448;7.028;2023-02-28T12:13:12;12.50;59.30
913;DHT22;443;51.448;7.028;2023-02-28T12:21:41;12.30;56.20
913;DHT22;443;51.448;7.028;2023-02-28T12:24:21;12.30;56.50
913;DHT22;443;51.448;7.028;2023-02-28T12:26:53;12.60;60.80
913;DHT22;443;51.448;7.028;2023-02-28T12:29:23;12.80;57.40
913;DHT22;443;51.448;7.028;2023-02-28T12:31:54;12.60;56.50
913;DHT22;443;51.448;7.028;2023-02-28T12:34:26;12.50;57.10
913;DHT22;443;51.448;7.028;2023-02-28T12:36:55;12.70;59.60
913;DHT22;443;51.448;7.028;2023-02-28T12:39:28;12.80;59.80
913;DHT22;443;51.448;7.028;2023-02-28T12:41:59;12.70;57.40
913;DHT22;443;51.448;7.028;2023-02-28T12:44:32;12.60;59.40
913;DHT22;443;51.448;7.028;2023-02-28T12:47:03;12.80;57.90
913;DHT22;443;51.448;7.028;2023-02-28T12:49:33;12.80;57.00
913;DHT22;443;51.448;7.028;2023-02-28T12:52:03;13.00;59.50
913;DHT22;443;51.448;7.028;2023-02-28T12:54:38;12.90;58.50
913;DHT22;443;51.448;7.028;2023-02-28T12:57:11;12.70;56.20
913;DHT22;443;51.448;7.028;2023-02-28T12:59:42;12.90;59.70
913;DHT22;443;51.448;7.028;2023-02-28T13:02:43;12.80;57.40
913;DHT22;443;51.448;7.028;2023-02-28T13:05:28;12.90;59.00
913;DHT22;443;51.448;7.028;2023-02-28T13:08:28;12.80;58.80
913;DHT22;443;51.448;7.028;2023-02-28T13:11:03;12.80;58.50
913;DHT22;443;51.448;7.028;2023-02-28T13:13:31;12.80;57.60
913;DHT22;443;51.448;7.028;2023-02-28T13:16:03;12.70;55.20
913;DHT22;443;51.448;7.028;2023-02-28T13:18:34;12.60;53.50
913;DHT22;443;51.448;7.028;2023-02-28T13:21:03;12.60;55.40
913;DHT22;443;51.448;7.028;2023-02-28T13:24:00;12.70;56.60
913;DHT22;443;51.448;7.028;2023-02-28T13:29:36;12.90;56.00
913;DHT22;443;51.448;7.028;2023-02-28T13:32:19;12.90;57.00
913;DHT22;443;51.448;7.028;2023-02-28T13:38:13;12.90;58.60
913;DHT22;443;51.448;7.028;2023-02-28T13:40:41;12.90;55.40
913;DHT22;443;51.448;7.028;2023-02-28T13:43:09;12.80;56.80
913;DHT22;443;51.448;7.028;2023-02-28T13:45:35;12.80;57.80
913;DHT22;443;51.448;7.028;2023-02-28T13:48:05;12.90;57.20
913;DHT22;443;51.448;7.028;2023-02-28T13:50:42;12.90;54.50
913;DHT22;443;51.448;7.028;2023-02-28T13:53:30;13.00;57.10
913;DHT22;443;51.448;7.028;2023-02-28T13:56:06;13.10;58.00
913;DHT22;443;51.448;7.028;2023-02-28T13:58:42;13.10;56.70
913;DHT22;443;51.448;7.028;2023-02-28T14:01:26;13.10;56.30
913;DHT22;443;51.448;7.028;2023-02-28T14:04:26;13.30;54.50
913;DHT22;443;51.448;7.028;2023-02-28T14:06:58;13.20;55.60
913;DHT22;443;51.448;7.028;2023-02-28T14:09:29;13.30;57.80
913;DHT22;443;51.448;7.028;2023-02-28T14:11:57;13.40;55.70
913;DHT22;443;51.448;7.028;2023-02-28T14:14:55;13.40;56.30
913;DHT22;443;51.448;7.028;2023-02-28T14:17:24;13.50;52.30
913;DHT22;443;51.448;7.028;2023-02-28T14:19:51;13.50;52.50
913;DHT22;443;51.448;7.028;2023-02-28T14:22:41;13.60;54.60
913;DHT22;443;51.448;7.028;2023-02-28T14:25:18;13.70;53.00
913;DHT22;443;51.448;7.028;2023-02-28T14:27:57;13.70;56.00
913;DHT22;443;51.448;7.028;2023-02-28T14:30:43;13.80;53.70
913;DHT22;443;51.448;7.028;2023-02-28T14:33:26;13.90;56.50
913;DHT22;443;51.448;7.028;2023-02-28T14:36:07;13.90;55.30
913;DHT22;443;51.448;7.028;2023-02-28T14:38:40;14.00;55.20
913;DHT22;443;51.448;7.028;2023-02-28T14:41:20;14.00;53.70
913;DHT22;443;51.448;7.028;2023-02-28T14:43:52;14.10;51.80
913;DHT22;443;51.448;7.028;2023-02-28T14:46:20;14.20;55.20
913;DHT22;443;51.448;7.028;2023-02-28T14:48:48;14.20;56.10
913;DHT22;443;51.448;7.028;2023-02-28T14:51:19;14.10;54.40
913;DHT22;443;51.448;7.028;2023-02-28T14:53:50;14.30;53.60
913;DHT22;443;51.448;7.028;2023-02-28T14:56:24;14.40;52.80
913;DHT22;443;51.448;7.028;2023-02-28T14:58:53;14.40;55.60
913;DHT22;443;51.448;7.028;2023-02-28T15:01:22;14.40;54.50
913;DHT22;443;51.448;7.028;2023-02-28T15:03:58;14.40;53.10
913;DHT22;443;51.448;7.028;2023-02-28T15:06:25;14.50;53.40
913;DHT22;443;51.448;7.028;2023-02-28T15:09:08;14.50;55.00
913;DHT22;443;51.448;7.028;2023-02-28T15:11:37;14.60;53.10
913;DHT22;443;51.448;7.028;2023-02-28T15:14:05;14.60;51.00
913;DHT22;443;51.448;7.028;2023-02-28T15:16:34;14.60;54.10
913;DHT22;443;51.448;7.028;2023-02-28T15:19:05;14.50;54.20
913;DHT22;443;51.448;7.028;2023-02-28T15:21:35;14.50;55.70
913;DHT22;443;51.448;7.028;2023-02-28T15:24:05;14.50;56.10
913;DHT22;443;51.448;7.028;2023-02-28T15:26:38;14.50;55.50
913;DHT22;443;51.448;7.028;2023-02-28T15:29:10;14.50;54.50
913;DHT22;443;51.448;7.028;2023-02-28T15:31:43;14.50;55.00
913;DHT22;443;51.448;7.028;2023-02-28T15:34:18;14.60;56.10
913;DHT22;443;51.448;7.028;2023-02-28T15:36:45;14.60;55.00
913;DHT22;443;51.448;7.028;2023-02-28T15:39:20;14.70;55.60
913;DHT22;443;51.448;7.028;2023-02-28T15:41:49;14.70;55.10
913;DHT22;443;51.448;7.028;2023-02-28T15:44:22;14.80;54.80
913;DHT22;443;51.448;7.028;2023-02-28T15:46:58;14.90;55.20
913;DHT22;443;51.448;7.028;2023-02-28T15:49:27;14.90;54.90
913;DHT22;443;51.448;7.028;2023-02-28T15:51:56;15.00;54.90
913;DHT22;443;51.448;7.028;2023-02-28T15:54:29;15.00;55.60
913;DHT22;443;51.448;7.028;2023-02-28T15:57:04;15.00;55.30
913;DHT22;443;51.448;7.028;2023-02-28T15:59:35;15.10;54.60
913;DHT22;443;51.448;7.028;2023-02-28T16:02:11;15.20;54.60
913;DHT22;443;51.448;7.028;2023-02-28T16:04:54;15.20;54.70
913;DHT22;443;51.448;7.028;2023-02-28T16:07:21;15.20;53.90
913;DHT22;443;51.448;7.028;2023-02-28T16:09:49;15.20;54.10
913;DHT22;443;51.448;7.028;2023-02-28T16:12:17;15.30;54.20
913;DHT22;443;51.448;7.028;2023-02-28T16:14:51;15.30;54.30
913;DHT22;443;51.448;7.028;2023-02-28T16:17:21;15.20;54.30
913;DHT22;443;51.448;7.028;2023-02-28T16:19:48;15.10;54.80
913;DHT22;443;51.448;7.028;2023-02-28T16:22:15;15.00;53.00
913;DHT22;443;51.448;7.028;2023-02-28T16:24:42;15.00;51.80
913;DHT22;443;51.448;7.028;2023-02-28T16:27:17;14.90;50.90
913;DHT22;443;51.448;7.028;2023-02-28T16:29:45;14.80;53.10
913;DHT22;443;51.448;7.028;2023-02-28T16:32:13;14.70;51.90
913;DHT22;443;51.448;7.028;2023-02-28T16:34:40;14.60;52.60
913;DHT22;443;51.448;7.028;2023-02-28T16:37:12;14.40;51.20
913;DHT22;443;51.448;7.028;2023-02-28T16:39:39;14.30;54.10
913;DHT22;443;51.448;7.028;2023-02-28T16:42:07;14.20;48.90
913;DHT22;443;51.448;7.028;2023-02-28T16:44:38;14.10;51.20
913;DHT22;443;51.448;7.028;2023-02-28T16:47:05;14.00;49.40
913;DHT22;443;51.448;7.028;2023-02-28T16:49:32;13.90;50.50
913;DHT22;443;51.448;7.028;2023-02-28T16:51:59;13.80;51.50
913;DHT22;443;51.448;7.028;2023-02-28T16:54:26;13.70;49.50
913;DHT22;443;51.448;7.028;2023-02-28T16:56:53;13.60;50.50
913;DHT22;443;51.448;7.028;2023-02-28T16:59:23;13.60;53.10
913;DHT22;443;51.448;7.028;2023-02-28T17:01:51;13.60;54.20
913;DHT22;443;51.448;7.028;2023-02-28T17:04:19;13.40;51.60
913;DHT22;443;51.448;7.028;2023-02-28T17:06:46;13.40;51.30
913;DHT22;443;51.448;7.028;2023-02-28T17:09:16;13.40;54.30
913;DHT22;443;51.448;7.028;2023-02-28T17:11:43;13.30;53.60
913;DHT22;443;51.448;7.028;2023-02-28T17:14:11;13.20;53.10
913;DHT22;443;51.448;7.028;2023-02-28T17:16:38;13.10;50.50
913;DHT22;443;51.448;7.028;2023-02-28T17:19:12;13.10;52.70
913;DHT22;443;51.448;7.028;2023-02-28T17:21:40;13.00;51.10
913;DHT22;443;51.448;7.028;2023-02-28T17:24:09;12.90;51.50
913;DHT22;443;51.448;7.028;2023-02-28T17:26:38;12.80;51.00
913;DHT22;443;51.448;7.028;2023-02-28T17:29:11;12.80;51.60